Time;durP1;ratioP1;P1;durP2;ratioP2;P2;SDS_P1;SDS_P2;PMS_P1;PMS_P2;Temp;Humidity;BMP_temperature;BMP_pressure;BME280_temperature;BME280_humidity;BME280_pressure;Samples;Min_cycle;Max_cycle;Signal;HPM_P1;HPM_P2
2023/03/31 00:00:10;;;;;;;4.70;2.13;;;;;;;9.64;100.00;100256.16;1048244;28;20309;-74
2023/03/31 00:00:43;;;;;;;8.25;2.72;;;;;;;9.62;100.00;100263.53;1046709;28;20436;-75
2023/03/31 00:01:14;;;;;;;10.20;3.60;;;;;;;9.62;100.00;100260.06;1047116;28;20295;-76
2023/03/31 00:01:46;;;;;;;8.30;2.92;;;;;;;9.65;100.00;100254.31;1048376;28;20291;-76
2023/03/31 00:02:20;;;;;;;10.60;2.70;;;;;;;9.72;100.00;100255.84;1048133;28;20377;-75
2023/03/31 00:02:53;;;;;;;10.90;3.40;;;;;;;9.73;100.00;100246.00;1043836;28;20310;-76
2023/03/31 00:03:26;;;;;;;10.43;3.13;;;;;;;9.67;100.00;100241.59;1044754;28;20455;-76
2023/03/31 00:04:03;;;;;;;5.65;2.42;;;;;;;9.71;100.00;100240.09;1047813;28;20286;-75
2023/03/31 00:04:36;;;;;;;12.77;2.75;;;;;;;9.69;100.00;100239.53;1036159;28;20289;-75
2023/03/31 00:05:08;;;;;;;9.43;2.50;;;;;;;9.61;100.00;100238.00;1040976;28;20385;-76
2023/03/31 00:05:40;;;;;;;10.10;2.60;;;;;;;9.59;100.00;100232.91;1039787;28;20493;-76
2023/03/31 00:06:16;;;;;;;8.20;2.95;;;;;;;9.68;100.00;100243.22;1038162;28;20308;-75
2023/03/31 00:06:52;;;;;;;8.75;2.38;;;;;;;9.69;100.00;100242.19;1036012;28;20288;-75
2023/03/31 00:07:24;;;;;;;8.25;2.80;;;;;;;9.65;100.00;100238.34;1036030;28;20830;-74
2023/03/31 00:07:59;;;;;;;4.85;2.53;;;;;;;9.66;100.00;100238.13;1039039;28;20328;-75
2023/03/31 00:08:34;;;;;;;7.28;3.00;;;;;;;9.71;100.00;100238.25;1045004;28;20661;-74
2023/03/31 00:09:17;;;;;;;6.25;2.22;;;;;;;9.70;100.00;100227.84;1048171;28;20666;-75
2023/03/31 00:09:53;;;;;;;7.55;2.65;;;;;;;9.72;100.00;100233.75;1048015;28;20299;-75
2023/03/31 00:10:45;;;;;;;7.13;2.97;;;;;;;9.78;100.00;100223.00;1045381;28;20304;-75
2023/03/31 00:11:17;;;;;;;11.20;3.97;;;;;;;9.77;100.00;100229.38;1047941;28;20840;-74
2023/03/31 00:11:49;;;;;;;9.10;2.30;;;;;;;9.72;100.00;100223.13;1048118;28;20302;-75
2023/03/31 00:12:21;;;;;;;6.72;3.20;;;;;;;9.73;100.00;100230.06;1044057;28;20348;-75
2023/03/31 00:12:53;;;;;;;6.85;3.53;;;;;;;9.73;100.00;100232.72;1047060;28;20306;-75
2023/03/31 00:13:25;;;;;;;8.32;2.53;;;;;;;9.72;100.00;100229.25;1045734;28;20286;-74
2023/03/31 00:13:56;;;;;;;8.07;2.70;;;;;;;9.64;100.00;100223.44;1043805;28;20299;-75
2023/03/31 00:14:28;;;;;;;8.45;4.10;;;;;;;9.65;100.00;100230.38;1039501;28;20401;-75
2023/03/31 00:15:00;;;;;;;9.25;3.38;;;;;;;9.66;100.00;100224.03;1040204;28;20358;-75
2023/03/31 00:15:31;;;;;;;11.18;2.85;;;;;;;9.68;100.00;100221.94;1039817;28;20346;-75
2023/03/31 00:16:05;;;;;;;8.02;3.15;;;;;;;9.70;100.00;100222.53;1042046;28;20299;-75
2023/03/31 00:16:38;;;;;;;7.38;2.92;;;;;;;9.72;100.00;100217.78;1039761;28;20527;-76
2023/03/31 00:17:11;;;;;;;6.45;2.72;;;;;;;9.73;100.00;100219.41;1039923;28;20300;-76
2023/03/31 00:17:42;;;;;;;6.85;2.85;;;;;;;9.68;100.00;100224.59;1040872;28;20300;-75
2023/03/31 00:18:14;;;;;;;6.93;2.38;;;;;;;9.67;100.00;100225.63;1043694;28;20677;-75
2023/03/31 00:18:49;;;;;;;7.45;3.33;;;;;;;9.66;100.00;100222.16;1046083;28;20291;-74
2023/03/31 00:19:21;;;;;;;6.00;2.30;;;;;;;9.60;100.00;100226.53;1040040;28;20352;-76
2023/03/31 00:19:59;;;;;;;6.47;2.70;;;;;;;9.66;100.00;100216.03;1039516;28;20314;-75
2023/03/31 00:20:36;;;;;;;10.63;3.35;;;;;;;9.74;100.00;100210.41;1041560;28;20300;-76
2023/03/31 00:21:13;;;;;;;8.18;3.90;;;;;;;9.73;100.00;100206.13;1041730;28;20316;-75
2023/03/31 00:21:46;;;;;;;11.30;3.10;;;;;;;9.73;100.00;100220.22;1039497;28;20437;-75
2023/03/31 00:22:20;;;;;;;6.03;3.22;;;;;;;9.73;100.00;100204.28;1039541;28;20806;-76
2023/03/31 00:22:53;;;;;;;13.02;2.60;;;;;;;9.73;100.00;100203.47;1037541;28;20299;-75
2023/03/31 00:23:26;;;;;;;9.60;4.10;;;;;;;9.71;100.00;100206.34;1033909;28;20340;-76
2023/03/31 00:24:00;;;;;;;8.75;2.95;;;;;;;9.74;100.00;100200.56;1035545;28;20387;-76
2023/03/31 00:24:33;;;;;;;9.05;2.38;;;;;;;9.65;100.00;100201.94;1031471;28;20332;-76
2023/03/31 00:25:05;;;;;;;6.07;2.22;;;;;;;9.67;100.00;100193.72;1030717;28;20661;-76
2023/03/31 00:25:40;;;;;;;6.25;2.95;;;;;;;9.63;100.00;100197.88;1038041;28;20305;-76
2023/03/31 00:26:12;;;;;;;9.05;2.33;;;;;;;9.58;100.00;100190.56;1045137;28;20283;-76
2023/03/31 00:26:44;;;;;;;8.13;3.53;;;;;;;9.57;100.00;100184.44;1048127;28;20294;-76
2023/03/31 00:27:15;;;;;;;8.63;2.58;;;;;;;9.54;100.00;100179.56;1047969;28;20302;-76
2023/03/31 00:27:49;;;;;;;6.18;2.50;;;;;;;9.59;100.00;100190.34;1048102;28;20290;-76
2023/03/31 00:28:21;;;;;;;10.23;2.92;;;;;;;9.58;100.00;100186.03;1043933;28;20299;-75
2023/03/31 00:28:53;;;;;;;10.73;3.28;;;;;;;9.67;100.00;100183.09;1035969;28;20332;-76
2023/03/31 00:29:25;;;;;;;10.25;2.92;;;;;;;9.59;100.00;100185.03;1035720;28;20308;-75
2023/03/31 00:29:56;;;;;;;5.53;2.95;;;;;;;9.56;100.00;100182.81;1032751;28;20312;-75
2023/03/31 00:30:28;;;;;;;7.05;2.88;;;;;;;9.53;100.00;100182.44;1033310;28;20305;-76
2023/03/31 00:31:02;;;;;;;9.15;3.63;;;;;;;9.60;100.00;100184.00;1036697;28;21006;-76
2023/03/31 00:31:34;;;;;;;6.13;2.20;;;;;;;9.55;100.00;100183.84;1040787;28;20304;-76
2023/03/31 00:32:07;;;;;;;11.77;2.85;;;;;;;9.54;100.00;100184.06;1043543;28;20345;-76
2023/03/31 00:32:39;;;;;;;14.00;3.47;;;;;;;9.51;100.00;100190.66;1042153;28;20312;-75
2023/03/31 00:33:10;;;;;;;11.10;2.33;;;;;;;9.52;100.00;100186.97;1043338;28;20291;-75
2023/03/31 00:33:42;;;;;;;15.93;3.05;;;;;;;9.62;100.00;100175.00;1043888;28;20299;-75
2023/03/31 00:34:14;;;;;;;6.40;1.90;;;;;;;9.64;100.00;100183.56;1039427;28;20304;-74
2023/03/31 00:34:45;;;;;;;12.70;3.15;;;;;;;9.58;100.00;100175.41;1039912;28;20311;-75
2023/03/31 00:35:17;;;;;;;8.18;2.92;;;;;;;9.70;100.00;100174.66;1035642;28;20301;-75
2023/03/31 00:35:52;;;;;;;4.25;2.47;;;;;;;9.74;100.00;100173.16;1040054;28;20312;-75
2023/03/31 00:36:27;;;;;;;10.13;2.83;;;;;;;9.76;100.00;100179.06;1043805;28;20374;-75
2023/03/31 00:37:01;;;;;;;11.45;2.67;;;;;;;9.70;100.00;100177.31;1041195;28;20304;-75
2023/03/31 00:37:33;;;;;;;8.27;2.63;;;;;;;9.68;100.00;100174.06;1042325;28;20283;-75
2023/03/31 00:38:07;;;;;;;9.95;2.78;;;;;;;9.80;100.00;100173.06;1040759;28;20411;-75
2023/03/31 00:38:39;;;;;;;8.82;2.83;;;;;;;9.71;100.00;100170.97;1040196;28;20308;-75
2023/03/31 00:39:11;;;;;;;8.23;2.38;;;;;;;9.71;100.00;100173.63;1035765;28;20297;-74
2023/03/31 00:39:42;;;;;;;3.72;2.08;;;;;;;9.74;100.00;100173.16;1036462;28;20694;-75
2023/03/31 00:40:15;;;;;;;8.52;2.92;;;;;;;9.74;100.00;100175.81;1039829;28;20824;-75
2023/03/31 00:40:47;;;;;;;7.15;2.53;;;;;;;9.71;100.00;100173.63;1040507;28;20307;-74
2023/03/31 00:41:18;;;;;;;12.35;3.33;;;;;;;9.69;100.00;100176.50;1040979;28;20288;-75
2023/03/31 00:41:50;;;;;;;7.63;2.35;;;;;;;9.72;100.00;100170.72;1043940;28;20303;-75
2023/03/31 00:42:22;;;;;;;9.43;2.60;;;;;;;9.74;100.00;100175.81;1039764;28;20828;-75
2023/03/31 00:42:54;;;;;;;6.20;3.17;;;;;;;9.78;100.00;100174.31;1045877;28;20705;-75
2023/03/31 00:43:37;;;;;;;7.25;3.05;;;;;;;9.88;100.00;100169.28;1047232;28;20305;-75
2023/03/31 00:44:21;;;;;;;9.25;2.13;;;;;;;9.80;100.00;100170.41;1041016;28;20379;-75
2023/03/31 00:45:18;;;;;;;8.57;2.75;;;;;;;9.79;100.00;100162.66;1044175;28;20413;-75
2023/03/31 00:45:50;;;;;;;9.30;3.03;;;;;;;9.81;100.00;100160.56;1043947;28;20370;-75
2023/03/31 00:46:26;;;;;;;12.13;3.80;;;;;;;9.86;100.00;100166.00;1043483;28;20373;-75
2023/03/31 00:47:05;;;;;;;9.15;2.17;;;;;;;9.85;100.00;100159.06;1039465;28;20296;-75
2023/03/31 00:47:39;;;;;;;12.63;3.63;;;;;;;9.79;100.00;100165.31;1035822;28;20423;-75
2023/03/31 00:48:15;;;;;;;15.15;3.30;;;;;;;9.82;100.00;100159.53;1040109;28;20663;-75
2023/03/31 00:48:53;;;;;;;7.95;3.65;;;;;;;9.83;100.00;100158.50;1046000;28;20354;-75
2023/03/31 00:49:29;;;;;;;7.72;2.45;;;;;;;9.83;100.00;100159.31;1042641;28;20369;-75
2023/03/31 00:50:00;;;;;;;9.98;2.50;;;;;;;9.88;100.00;100154.13;1042100;28;20300;-75
2023/03/31 00:50:36;;;;;;;12.00;3.35;;;;;;;9.84;100.00;100155.59;1039758;28;20390;-75
2023/03/31 00:51:09;;;;;;;10.93;2.92;;;;;;;9.86;100.00;100152.72;1034189;28;20351;-75
2023/03/31 00:51:41;;;;;;;7.68;2.40;;;;;;;9.91;100.00;100151.00;1031223;28;20802;-75
2023/03/31 00:52:31;;;;;;;7.85;3.38;;;;;;;9.91;100.00;100148.34;1032645;28;20380;-75
2023/03/31 00:53:07;;;;;;;8.82;2.03;;;;;;;9.88;100.00;100154.13;1035090;28;20297;-75
2023/03/31 00:53:39;;;;;;;11.07;2.47;;;;;;;9.84;100.00;100157.47;1035054;28;20296;-75
2023/03/31 00:54:11;;;;;;;11.77;2.83;;;;;;;9.93;100.00;100145.47;1034910;28;20319;-75
2023/03/31 00:54:44;;;;;;;7.50;2.15;;;;;;;9.88;100.00;100148.81;1032517;28;20305;-75
2023/03/31 00:55:21;;;;;;;9.93;3.05;;;;;;;9.84;100.00;100152.94;1036531;28;20775;-75
2023/03/31 00:55:58;;;;;;;7.22;2.63;;;;;;;9.85;100.00;100143.13;1037184;28;20301;-74
2023/03/31 00:56:34;;;;;;;9.80;2.63;;;;;;;9.94;100.00;100131.13;1037564;28;20288;-75
2023/03/31 00:57:07;;;;;;;7.90;2.33;;;;;;;9.89;100.00;100144.31;1031737;28;20308;-75
2023/03/31 00:57:40;;;;;;;9.80;3.15;;;;;;;9.85;100.00;100140.44;1031933;28;20313;-75
2023/03/31 00:58:14;;;;;;;7.55;2.78;;;;;;;9.83;100.00;100134.56;1024642;28;20303;-75
2023/03/31 00:58:46;;;;;;;8.57;1.92;;;;;;;9.76;100.00;100139.97;1031796;28;20325;-75
2023/03/31 00:59:18;;;;;;;5.90;2.30;;;;;;;9.80;100.00;100140.34;1040877;28;20299;-75
2023/03/31 00:59:52;;;;;;;5.72;2.15;;;;;;;9.74;100.00;100141.25;1039499;28;20801;-75
2023/03/31 01:00:24;;;;;;;7.50;2.53;;;;;;;9.65;100.00;100132.00;1033137;28;20337;-75
2023/03/31 01:00:57;;;;;;;6.53;2.63;;;;;;;9.62;100.00;100135.09;1039578;28;20300;-75
2023/03/31 01:01:29;;;;;;;10.65;2.10;;;;;;;9.62;100.00;100137.75;1032810;28;20391;-75
2023/03/31 01:02:01;;;;;;;6.65;2.78;;;;;;;9.60;100.00;100136.16;1032926;28;20316;-76
2023/03/31 01:02:33;;;;;;;9.63;2.83;;;;;;;9.73;100.00;100129.00;1035347;28;20304;-74
2023/03/31 01:03:08;;;;;;;8.05;2.60;;;;;;;9.77;100.00;100133.63;1037042;28;20414;-75
2023/03/31 01:03:41;;;;;;;8.75;3.55;;;;;;;9.72;100.00;100132.69;1039447;28;20308;-75
2023/03/31 01:04:13;;;;;;;6.63;2.85;;;;;;;9.73;100.00;100123.69;1040532;28;20295;-75
2023/03/31 01:04:49;;;;;;;7.25;2.20;;;;;;;9.77;100.00;100122.19;1042159;28;20306;-75
2023/03/31 01:05:25;;;;;;;7.55;2.15;;;;;;;9.78;100.00;100131.78;1041467;28;20303;-75
2023/03/31 01:06:05;;;;;;;9.02;2.20;;;;;;;9.78;100.00;100126.47;1041153;28;20298;-75
2023/03/31 01:06:45;;;;;;;10.30;2.60;;;;;;;9.70;100.00;100129.44;1035656;28;20856;-75
2023/03/31 01:07:24;;;;;;;6.97;2.70;;;;;;;9.68;100.00;100120.91;1035548;28;20117;-75
2023/03/31 01:07:56;;;;;;;8.43;2.42;;;;;;;9.74;100.00;100120.78;1038356;28;20311;-75
2023/03/31 01:08:28;;;;;;;7.97;2.70;;;;;;;9.73;100.00;100123.69;1035385;28;20305;-75
2023/03/31 01:09:05;;;;;;;10.20;2.72;;;;;;;9.72;100.00;100125.53;1033746;28;20293;-75
2023/03/31 01:09:37;;;;;;;5.40;1.80;;;;;;;9.71;100.00;100125.75;1036727;28;20300;-75
2023/03/31 01:10:10;;;;;;;9.05;2.42;;;;;;;9.63;100.00;100118.13;1043664;28;20303;-75
2023/03/31 01:10:46;;;;;;;8.45;2.53;;;;;;;9.57;100.00;100120.63;1046744;28;20307;-74
2023/03/31 01:11:21;;;;;;;6.00;2.25;;;;;;;9.64;100.00;100125.06;1043632;28;20852;-75
2023/03/31 01:11:52;;;;;;;9.82;2.60;;;;;;;9.62;100.00;100116.50;1039443;28;20643;-74
2023/03/31 01:12:25;;;;;;;6.28;2.45;;;;;;;9.63;100.00;100118.91;1037975;28;20296;-76
2023/03/31 01:12:57;;;;;;;13.55;3.40;;;;;;;9.68;100.00;100116.38;1033421;28;20305;-76
2023/03/31 01:13:29;;;;;;;8.18;2.60;;;;;;;9.67;100.00;100113.97;1040087;28;20304;-75
2023/03/31 01:14:03;;;;;;;6.03;2.20;;;;;;;9.66;100.00;100120.31;1043848;28;20291;-76
2023/03/31 01:14:34;;;;;;;10.32;3.05;;;;;;;9.62;100.00;100117.31;1033823;28;20304;-76
2023/03/31 01:15:07;;;;;;;7.40;2.58;;;;;;;9.67;100.00;100109.44;1036190;28;20293;-76
2023/03/31 01:15:39;;;;;;;10.93;3.35;;;;;;;9.81;100.00;100113.50;1039498;28;20304;-76
2023/03/31 01:16:11;;;;;;;11.88;2.70;;;;;;;9.74;100.00;100120.78;1039316;28;20288;-76
2023/03/31 01:16:42;;;;;;;5.45;1.83;;;;;;;9.80;100.00;100109.22;1038741;28;20355;-76
2023/03/31 01:17:17;;;;;;;10.02;3.35;;;;;;;9.81;100.00;100107.38;1027743;28;20309;-76
2023/03/31 01:17:51;;;;;;;10.32;2.72;;;;;;;9.83;100.00;100110.63;1028559;28;20350;-76
2023/03/31 01:18:23;;;;;;;15.23;2.92;;;;;;;9.81;100.00;100112.69;1033697;28;20297;-76
2023/03/31 01:18:56;;;;;;;6.97;3.03;;;;;;;9.75;100.00;100110.97;1040878;28;20678;-76
2023/03/31 01:19:53;;;;;;;7.40;2.65;;;;;;;9.80;100.00;100108.41;1043651;28;20291;-76
2023/03/31 01:20:34;;;;;;;11.68;2.20;;;;;;;9.86;100.00;100104.84;1035440;28;20309;-76
2023/03/31 01:21:17;;;;;;;10.18;2.80;;;;;;;9.79;100.00;100102.28;1039346;28;20315;-76
2023/03/31 01:22:12;;;;;;;6.07;2.90;;;;;;;9.84;100.00;100098.94;1039981;28;20041;-76
2023/03/31 01:23:05;;;;;;;6.28;2.60;;;;;;;9.86;100.00;100099.50;1043480;28;20303;-76
2023/03/31 01:23:56;;;;;;;7.05;1.85;;;;;;;9.86;100.00;100104.84;1043803;28;20303;-76
2023/03/31 01:25:06;;;;;;;15.43;2.85;;;;;;;9.94;100.00;100093.88;1043413;28;20692;-75
2023/03/31 01:26:08;;;;;;;6.75;1.73;;;;;;;9.93;100.00;100094.91;1034894;28;20313;-75
2023/03/31 01:26:53;;;;;;;5.50;2.40;;;;;;;9.98;100.00;100103.03;1047920;28;20803;-75
2023/03/31 01:27:33;;;;;;;6.32;2.60;;;;;;;9.93;100.00;100097.59;1048048;28;20287;-76
2023/03/31 01:28:13;;;;;;;5.75;1.85;;;;;;;9.93;100.00;100097.59;1041773;28;20350;-75
2023/03/31 01:28:58;;;;;;;11.45;2.42;;;;;;;9.93;100.00;100096.78;1043481;28;20332;-74
2023/03/31 01:29:48;;;;;;;11.85;3.00;;;;;;;10.02;100.00;100090.06;1045916;28;20294;-74
2023/03/31 01:30:40;;;;;;;6.93;2.38;;;;;;;10.08;100.00;100094.44;1044664;28;20295;-75
2023/03/31 01:31:39;;;;;;;7.72;2.53;;;;;;;9.96;100.00;100091.78;1039789;28;20304;-75
2023/03/31 01:32:31;;;;;;;9.68;2.78;;;;;;;9.97;100.00;100093.41;1035417;28;20296;-74
2023/03/31 01:33:17;;;;;;;6.28;1.63;;;;;;;10.04;100.00;100083.47;1047344;28;20412;-75
2023/03/31 01:34:13;;;;;;;5.95;2.30;;;;;;;10.03;100.00;100081.84;1047253;28;20370;-74
2023/03/31 01:35:08;;;;;;;5.70;2.17;;;;;;;10.03;100.00;100087.16;1049534;28;20322;-75
2023/03/31 01:36:03;;;;;;;7.15;1.90;;;;;;;10.03;100.00;100081.84;1043683;28;20303;-75
2023/03/31 01:36:42;;;;;;;6.50;2.33;;;;;;;10.02;100.00;100085.56;1039721;28;20698;-76
2023/03/31 01:37:40;;;;;;;7.80;2.03;;;;;;;10.07;100.00;100083.00;1042188;28;20292;-76
2023/03/31 01:38:37;;;;;;;8.25;3.05;;;;;;;10.12;100.00;100077.78;1040606;28;20300;-76
2023/03/31 01:39:49;;;;;;;3.00;1.70;;;;;;;10.13;100.00;100076.75;1045585;28;20815;-75
2023/03/31 01:40:30;;;;;;;6.30;1.83;;;;;;;10.12;100.00;100075.13;1041572;28;20295;-75
2023/03/31 01:41:21;;;;;;;6.28;1.63;;;;;;;10.03;100.00;100079.19;1043883;28;20312;-76
2023/03/31 01:42:05;;;;;;;7.95;2.03;;;;;;;9.98;100.00;100079.06;1037118;28;20038;-75
2023/03/31 01:42:56;;;;;;;7.20;2.20;;;;;;;10.05;100.00;100074.44;1035866;28;20304;-75
2023/03/31 01:43:37;;;;;;;3.40;1.60;;;;;;;10.09;100.00;100066.81;1033056;28;20293;-75
2023/03/31 01:44:22;;;;;;;3.65;2.35;;;;;;;10.07;100.00;100064.38;1037460;28;20194;-76
2023/03/31 01:45:12;;;;;;;8.55;2.55;;;;;;;9.92;100.00;100069.38;1043412;28;20037;-76
2023/03/31 01:45:59;;;;;;;5.82;2.30;;;;;;;9.93;100.00;100063.00;1043866;28;20299;-75
2023/03/31 01:46:35;;;;;;;9.60;3.88;;;;;;;9.93;100.00;100063.00;1043577;28;20295;-75
2023/03/31 01:47:11;;;;;;;7.47;2.28;;;;;;;9.93;100.00;100065.66;1038937;28;20303;-75
2023/03/31 01:47:48;;;;;;;6.28;2.00;;;;;;;9.94;100.00;100063.81;1039300;28;20808;-76
2023/03/31 01:48:34;;;;;;;8.57;2.35;;;;;;;9.96;100.00;100054.56;1035292;28;20288;-75
2023/03/31 01:49:24;;;;;;;5.72;2.40;;;;;;;9.95;100.00;100058.25;1034945;28;20298;-75
2023/03/31 01:50:20;;;;;;;13.20;4.05;;;;;;;9.93;100.00;100056.88;1039622;28;20303;-75
2023/03/31 01:50:57;;;;;;;7.50;2.35;;;;;;;9.93;100.00;100055.03;1041795;28;20300;-76
2023/03/31 01:51:54;;;;;;;8.48;2.30;;;;;;;9.90;100.00;100053.63;1039282;28;20307;-75
2023/03/31 01:52:55;;;;;;;5.05;2.50;;;;;;;9.91;100.00;100043.81;1032406;28;20367;-76
2023/03/31 01:53:35;;;;;;;7.15;2.40;;;;;;;9.90;100.00;100045.66;1042437;28;20365;-76
2023/03/31 01:54:38;;;;;;;10.52;2.63;;;;;;;9.83;100.00;100044.13;1042579;28;20049;-76
2023/03/31 01:55:18;;;;;;;13.63;1.95;;;;;;;9.87;100.00;100040.00;1047583;28;20538;-75
2023/03/31 01:56:03;;;;;;;6.40;2.50;;;;;;;9.73;100.00;100043.91;1043393;28;20315;-76
2023/03/31 01:56:38;;;;;;;12.82;2.95;;;;;;;9.79;100.00;100037.66;1039195;28;20041;-76
2023/03/31 01:57:22;;;;;;;7.57;2.97;;;;;;;9.80;100.00;100026.78;1035176;28;20300;-75
2023/03/31 01:57:59;;;;;;;8.80;1.83;;;;;;;9.78;100.00;100025.41;1035605;28;20301;-74
2023/03/31 01:58:43;;;;;;;3.40;1.55;;;;;;;9.75;100.00;100021.34;1037746;28;20041;-74
2023/03/31 01:59:25;;;;;;;8.52;2.03;;;;;;;9.79;100.00;100024.34;1039717;28;20643;-75
2023/03/31 02:00:13;;;;;;;11.63;3.65;;;;;;;9.76;100.00;100027.47;1034953;28;20296;-74
2023/03/31 02:00:55;;;;;;;4.20;2.25;;;;;;;9.69;100.00;100026.78;1035471;28;20289;-74
2023/03/31 02:01:32;;;;;;;7.50;2.90;;;;;;;9.71;100.00;100038.00;1031263;28;20757;-74
2023/03/31 02:02:11;;;;;;;6.47;2.08;;;;;;;9.74;100.00;100034.88;1035169;28;20309;-74
2023/03/31 02:02:56;;;;;;;9.90;2.35;;;;;;;9.78;100.00;100036.03;1038614;28;20288;-74
2023/03/31 02:03:34;;;;;;;4.53;1.63;;;;;;;9.74;100.00;100032.22;1032256;28;20790;-74
2023/03/31 02:04:15;;;;;;;2.92;1.58;;;;;;;9.69;100.00;100026.78;1042714;28;20866;-74
2023/03/31 02:04:48;;;;;;;;;;;;;;;9.68;100.00;100019.84;1039652;28;20781;-74
2023/03/31 02:05:24;;;;;;;6.05;1.80;;;;;;;9.72;100.00;100026.31;1044112;28;20288;-74
2023/03/31 02:05:58;;;;;;;9.00;1.80;;;;;;;9.68;100.00;100012.69;1040632;28;20320;-74
2023/03/31 02:06:35;;;;;;;6.97;1.70;;;;;;;9.70;100.00;100023.09;1040706;28;20718;-74
2023/03/31 02:07:12;;;;;;;8.32;1.80;;;;;;;9.73;100.00;100017.31;1041475;28;20288;-73
2023/03/31 02:07:50;;;;;;;7.97;1.85;;;;;;;9.71;100.00;100008.75;1041723;28;20805;-73
2023/03/31 02:08:40;;;;;;;8.73;2.75;;;;;;;9.69;100.00;100010.81;1047645;28;20785;-73
2023/03/31 02:09:18;;;;;;;6.20;1.90;;;;;;;9.63;100.00;100001.13;1043386;28;20828;-73
2023/03/31 02:09:57;;;;;;;8.82;2.40;;;;;;;9.66;100.00;100008.63;1043516;28;20669;-73
2023/03/31 02:10:30;;;;;;;5.93;3.53;;;;;;;9.65;100.00;100004.34;1035556;28;20297;-73
2023/03/31 02:11:02;;;;;;;2.20;1.25;;;;;;;9.64;100.00;100005.41;1037676;28;20305;-73
2023/03/31 02:11:34;;;;;;;6.65;1.77;;;;;;;9.63;100.00;100001.13;1034895;28;20301;-73
2023/03/31 02:12:08;;;;;;;6.75;2.53;;;;;;;9.58;100.00;100001.78;1035039;28;20451;-74
2023/03/31 02:12:41;;;;;;;4.95;1.55;;;;;;;9.58;100.00;99999.13;1034811;28;20846;-74
2023/03/31 02:13:14;;;;;;;5.55;1.75;;;;;;;9.69;100.00;99992.22;1035122;28;20308;-74
2023/03/31 02:13:47;;;;;;;4.97;1.73;;;;;;;9.60;100.00;99997.88;1032874;28;20305;-74
2023/03/31 02:14:23;;;;;;;4.35;1.45;;;;;;;9.67;100.00;99992.44;1031172;28;20293;-74
2023/03/31 02:14:57;;;;;;;6.45;1.73;;;;;;;9.74;100.00;99992.31;1032317;28;20298;-73
2023/03/31 02:15:37;;;;;;;9.23;1.50;;;;;;;9.65;100.00;99988.41;1035146;28;20348;-74
2023/03/31 02:16:15;;;;;;;3.25;1.52;;;;;;;9.57;100.00;99986.88;1037930;28;20300;-74
2023/03/31 02:16:49;;;;;;;6.50;2.10;;;;;;;9.56;100.00;99996.69;1040423;28;20714;-74
2023/03/31 02:17:29;;;;;;;5.40;1.63;;;;;;;9.60;100.00;99997.88;1041966;28;20862;-74
2023/03/31 02:18:04;;;;;;;6.18;1.70;;;;;;;9.51;100.00;99996.59;1039309;28;20315;-74
2023/03/31 02:18:37;;;;;;;7.28;1.50;;;;;;;9.65;100.00;99988.41;1037632;28;20045;-74
2023/03/31 02:19:09;;;;;;;5.25;1.83;;;;;;;9.65;100.00;99986.56;1041478;28;20307;-74
2023/03/31 02:19:43;;;;;;;7.00;1.75;;;;;;;9.54;100.00;99974.84;1043418;28;20307;-74
2023/03/31 02:20:17;;;;;;;2.67;1.50;;;;;;;9.38;100.00;99980.06;1037612;28;20358;-75
2023/03/31 02:20:50;;;;;;;5.53;1.60;;;;;;;9.53;100.00;99981.22;1038952;28;20308;-75
2023/03/31 02:21:22;;;;;;;11.50;1.90;;;;;;;9.53;100.00;99981.22;1035135;28;20303;-75
2023/03/31 02:21:53;;;;;;;9.95;1.70;;;;;;;9.48;100.00;99983.75;1033106;28;20298;-75
2023/03/31 02:22:30;;;;;;;6.15;2.08;;;;;;;9.49;100.00;99980.06;1039681;28;20659;-74
2023/03/31 02:23:02;;;;;;;4.53;1.52;;;;;;;9.56;100.00;99969.31;1040441;28;20299;-75
2023/03/31 02:23:36;;;;;;;4.22;1.90;;;;;;;9.48;100.00;99967.81;1040158;28;20347;-74
2023/03/31 02:24:10;;;;;;;2.83;1.23;;;;;;;9.54;100.00;99969.53;1035209;28;20463;-74
2023/03/31 02:24:43;;;;;;;5.90;1.80;;;;;;;9.56;100.00;99964.78;1032301;28;20301;-74
2023/03/31 02:25:18;;;;;;;4.32;1.42;;;;;;;9.66;100.00;99960.78;1038015;28;20300;-75
2023/03/31 02:25:52;;;;;;;2.33;1.50;;;;;;;9.64;100.00;99960.19;1030831;28;20301;-74
2023/03/31 02:26:28;;;;;;;5.78;2.35;;;;;;;9.71;100.00;99966.19;1039233;28;20304;-74
2023/03/31 02:27:09;;;;;;;8.90;1.77;;;;;;;9.67;100.00;99959.72;1041141;28;20465;-74
2023/03/31 02:27:43;;;;;;;4.95;1.55;;;;;;;9.67;100.00;99954.41;1041824;28;20363;-74
2023/03/31 02:28:20;;;;;;;11.63;3.05;;;;;;;9.67;100.00;99951.75;1035312;28;20416;-74
2023/03/31 02:28:52;;;;;;;2.65;1.08;;;;;;;9.65;100.00;99956.50;1042156;28;20334;-74
2023/03/31 02:29:23;;;;;;;9.45;1.85;;;;;;;9.63;100.00;99953.25;1039379;28;20296;-74
2023/03/31 02:29:56;;;;;;;7.68;1.60;;;;;;;9.57;100.00;99953.13;1037294;28;20305;-74
2023/03/31 02:30:55;;;;;;;5.72;1.45;;;;;;;9.53;100.00;99953.81;1037059;28;20312;-74
2023/03/31 02:31:50;;;;;;;4.00;1.60;;;;;;;9.47;100.00;99950.25;1034397;28;20360;-74
2023/03/31 02:32:34;;;;;;;4.55;1.38;;;;;;;9.53;100.00;99946.66;1041912;28;20310;-74
2023/03/31 02:33:06;;;;;;;6.65;1.58;;;;;;;9.49;100.00;99947.34;1038926;28;20304;-74
2023/03/31 02:33:38;;;;;;;5.57;1.33;;;;;;;9.57;100.00;99945.16;1035989;28;20309;-74
2023/03/31 02:34:11;;;;;;;7.15;2.45;;;;;;;9.48;100.00;99949.19;1033462;28;20297;-74
2023/03/31 02:34:43;;;;;;;5.28;1.75;;;;;;;9.52;100.00;99938.91;1031823;28;20308;-74
2023/03/31 02:35:16;;;;;;;1.80;1.10;;;;;;;9.48;100.00;99938.56;1035796;28;20658;-74
2023/03/31 02:35:48;;;;;;;5.88;1.50;;;;;;;9.64;100.00;99938.94;1039890;28;20519;-74
2023/03/31 02:36:20;;;;;;;6.85;2.25;;;;;;;9.54;100.00;99934.97;1043319;28;20434;-74
2023/03/31 02:36:52;;;;;;;4.20;1.25;;;;;;;9.54;100.00;99931.50;1043148;28;20657;-74
2023/03/31 02:37:24;;;;;;;6.03;1.45;;;;;;;9.57;100.00;99934.50;1038929;28;20308;-74
2023/03/31 02:37:57;;;;;;;5.32;1.30;;;;;;;9.61;100.00;99924.25;1035278;28;20312;-74
2023/03/31 02:38:32;;;;;;;7.65;1.63;;;;;;;9.49;100.00;99929.56;1040331;28;20299;-74
2023/03/31 02:39:07;;;;;;;6.15;1.50;;;;;;;9.52;100.00;99922.97;1035208;28;20305;-74
2023/03/31 02:39:40;;;;;;;8.05;1.95;;;;;;;9.51;100.00;99924.81;1037920;28;20296;-75
2023/03/31 02:40:18;;;;;;;3.38;1.33;;;;;;;9.60;100.00;99923.44;1032929;28;20311;-74
2023/03/31 02:40:50;;;;;;;5.63;1.63;;;;;;;9.45;100.00;99920.44;1027036;28;20306;-74
2023/03/31 02:41:22;;;;;;;5.55;1.17;;;;;;;9.67;100.00;99923.31;1028690;28;20789;-75
2023/03/31 02:41:54;;;;;;;4.40;1.50;;;;;;;9.68;100.00;99916.16;1031008;28;20361;-75
2023/03/31 02:42:26;;;;;;;5.43;1.52;;;;;;;9.66;100.00;99915.56;1031672;28;20308;-74
2023/03/31 02:42:57;;;;;;;9.00;1.40;;;;;;;9.55;100.00;99920.63;1031606;28;20364;-74
2023/03/31 02:43:29;;;;;;;5.60;1.92;;;;;;;9.55;100.00;99914.53;1032392;28;20293;-75
2023/03/31 02:44:00;;;;;;;2.58;1.08;;;;;;;9.66;100.00;99913.72;1034735;28;20304;-75
2023/03/31 02:44:34;;;;;;;4.38;1.35;;;;;;;9.45;100.00;99912.44;1035239;28;20395;-75
2023/03/31 02:45:26;;;;;;;8.18;1.73;;;;;;;9.43;100.00;99914.53;1035733;28;20303;-75
2023/03/31 02:45:58;;;;;;;5.85;1.88;;;;;;;9.51;100.00;99913.38;1040348;28;20845;-74
2023/03/31 02:46:30;;;;;;;6.75;1.75;;;;;;;9.45;100.00;99915.09;1043126;28;20377;-75
2023/03/31 02:47:07;;;;;;;11.85;1.50;;;;;;;9.50;100.00;99912.56;1038583;28;20715;-75
2023/03/31 02:47:38;;;;;;;5.65;1.88;;;;;;;9.45;100.00;99915.09;1034881;28;20308;-75
2023/03/31 02:48:37;;;;;;;2.42;1.23;;;;;;;9.37;100.00;99912.81;1035308;28;20308;-75
2023/03/31 02:49:10;;;;;;;2.80;1.20;;;;;;;9.46;100.00;99906.09;1038896;28;20296;-75
2023/03/31 02:49:45;;;;;;;6.53;2.83;;;;;;;9.48;100.00;99909.31;1039180;28;20300;-75
2023/03/31 02:50:19;;;;;;;8.73;1.95;;;;;;;9.53;100.00;99905.97;1038944;28;20299;-76
2023/03/31 02:51:07;;;;;;;6.57;1.50;;;;;;;9.54;100.00;99908.41;1039596;28;20300;-75
2023/03/31 02:52:02;;;;;;;6.10;1.85;;;;;;;9.54;100.00;99903.06;1039169;28;20299;-75
2023/03/31 02:53:01;;;;;;;2.78;1.50;;;;;;;9.60;100.00;99902.16;1032830;28;20663;-74
2023/03/31 02:54:10;;;;;;;4.80;1.83;;;;;;;9.38;100.00;99898.47;1038007;28;20295;-75
2023/03/31 02:55:22;;;;;;;2.67;1.27;;;;;;;9.55;100.00;99890.59;1038342;28;20781;-75